Time;durP1;ratioP1;P1;durP2;ratioP2;P2;SDS_P1;SDS_P2;PMS_P1;PMS_P2;Temp;Humidity;BMP_temperature;BMP_pressure;BME280_temperature;BME280_humidity;BME280_pressure;Samples;Min_cycle;Max_cycle;Signal;HPM_P1;HPM_P2
2021/09/23 00:01:04;;;;;;;9.48;4.17;;;;;;;7.43;97.06;144085.75;1853545;77;22582;-60
2021/09/23 00:06:51;;;;;;;8.03;4.60;;;;;;;7.39;97.32;144076.97;1853586;77;22206;-60
2021/09/23 00:09:45;;;;;;;6.40;4.03;;;;;;;7.41;97.27;144080.73;1835011;77;22136;-59
2021/09/23 00:12:20;;;;;;;6.97;4.15;;;;;;;7.37;97.14;144071.95;1819413;77;28398;-67
2021/09/23 00:14:55;;;;;;;5.50;3.50;;;;;;;7.37;97.28;144070.70;1853713;77;22554;-62
2021/09/23 00:17:54;;;;;;;9.03;4.70;;;;;;;7.35;97.38;144065.69;1853617;77;22539;-64
2021/09/23 00:20:33;;;;;;;5.55;3.92;;;;;;;7.34;97.48;144063.22;1835049;77;22120;-62
2021/09/23 00:23:27;;;;;;;6.78;4.15;;;;;;;7.32;97.60;144058.20;1835007;77;22128;-66
2021/09/23 00:26:21;;;;;;;6.80;4.20;;;;;;;7.30;97.78;144054.47;1853473;77;22131;-64
2021/09/23 00:28:56;;;;;;;6.78;4.30;;;;;;;7.31;97.84;144055.72;1819430;77;28395;-63
2021/09/23 00:31:50;;;;;;;7.28;4.40;;;;;;;7.41;97.80;144079.48;1853672;77;22135;-58
2021/09/23 00:34:45;;;;;;;8.38;4.70;;;;;;;7.44;97.77;144086.98;1835117;77;22563;-60
2021/09/23 00:37:26;;;;;;;9.80;4.87;;;;;;;7.43;97.58;144085.75;1834235;77;22145;-64
2021/09/23 00:40:08;;;;;;;6.50;4.33;;;;;;;7.39;97.52;144075.72;1853577;77;22123;-61
2021/09/23 00:43:00;;;;;;;7.95;4.87;;;;;;;7.37;97.55;144070.70;1853623;77;22135;-62
2021/09/23 00:45:54;;;;;;;7.90;5.05;;;;;;;7.38;97.57;144073.23;1835068;77;22559;-61
2021/09/23 00:48:29;;;;;;;10.25;5.42;;;;;;;7.33;97.62;144060.73;1834994;77;22128;-61
2021/09/23 00:51:04;;;;;;;8.20;4.70;;;;;;;7.33;97.82;144060.73;1834958;77;22163;-56
2021/09/23 00:53:39;;;;;;;9.35;5.05;;;;;;;7.34;97.91;144064.45;1835034;77;22136;-59
2021/09/23 00:56:33;;;;;;;9.20;5.65;;;;;;;7.34;97.84;144064.45;1835116;77;22148;-57
2021/09/23 00:59:08;;;;;;;11.00;5.45;;;;;;;7.30;97.83;144054.47;1834995;77;22156;-58
2021/09/23 01:02:02;;;;;;;11.57;5.40;;;;;;;7.31;98.03;144055.72;1834943;77;22132;-61
2021/09/23 01:04:42;;;;;;;9.95;5.85;;;;;;;7.30;98.08;144053.19;1853633;77;22127;-60
2021/09/23 01:07:18;;;;;;;8.10;5.03;;;;;;;7.28;98.15;144048.22;1835168;77;22559;-57
2021/09/23 01:10:15;;;;;;;8.43;5.37;;;;;;;7.25;98.12;144041.97;1834912;77;22132;-60
2021/09/23 01:12:50;;;;;;;9.63;6.03;;;;;;;7.23;98.11;144035.72;1853532;77;22184;-60
2021/09/23 01:15:25;;;;;;;8.93;5.20;;;;;;;7.25;98.31;144040.69;1853670;77;22128;-63
2021/09/23 01:18:00;;;;;;;7.65;4.90;;;;;;;7.21;98.31;144030.70;1835009;77;22200;-60
2021/09/23 01:20:54;;;;;;;7.97;5.20;;;;;;;7.21;98.53;144030.70;1834949;77;22554;-64
2021/09/23 01:23:29;;;;;;;10.18;5.58;;;;;;;7.18;98.64;144025.69;1853552;77;22120;-57
2021/09/23 01:26:09;;;;;;;9.08;5.80;;;;;;;7.20;98.68;144028.17;1853640;77;22132;-58
2021/09/23 01:29:04;;;;;;;11.08;5.75;;;;;;;7.20;98.74;144028.17;1853501;77;22562;-65
2021/09/23 01:31:39;;;;;;;8.45;5.20;;;;;;;7.16;98.83;144020.67;1853592;77;22151;-60
2021/09/23 01:34:14;;;;;;;8.75;5.03;;;;;;;7.15;98.92;144018.19;1853612;77;22124;-62
2021/09/23 01:37:08;;;;;;;8.33;5.28;;;;;;;7.13;99.02;144013.19;1834947;77;22133;-56
2021/09/23 01:40:07;;;;;;;11.33;5.42;;;;;;;7.12;99.19;144010.70;1835147;77;22351;-63
2021/09/23 01:42:44;;;;;;;9.85;5.45;;;;;;;7.08;99.24;144000.67;1853585;77;22127;-63
2021/09/23 01:45:38;;;;;;;8.00;4.60;;;;;;;7.07;99.41;143998.19;1819421;77;28065;-62
2021/09/23 01:48:14;;;;;;;6.97;4.78;;;;;;;7.14;99.44;144015.66;1834918;77;22128;-61
2021/09/23 01:51:08;;;;;;;10.20;5.58;;;;;;;7.15;99.39;144016.95;1834978;77;22132;-56
2021/09/23 01:53:43;;;;;;;8.48;5.08;;;;;;;7.19;99.39;144026.94;1835070;77;22609;-63
2021/09/23 01:56:38;;;;;;;7.08;5.10;;;;;;;7.20;99.39;144028.17;1834977;77;22567;-60
2021/09/23 01:59:13;;;;;;;8.35;5.22;;;;;;;7.17;99.48;144021.91;1853539;77;22128;-62
2021/09/23 02:01:48;;;;;;;9.03;5.72;;;;;;;7.15;99.59;144016.95;1835042;77;22137;-59
2021/09/23 02:04:43;;;;;;;10.78;5.80;;;;;;;7.13;99.65;144011.94;1853516;77;22140;-63
2021/09/23 02:07:37;;;;;;;9.65;6.37;;;;;;;7.14;99.65;144015.66;1834994;77;22547;-62
2021/09/23 02:10:14;;;;;;;8.08;5.22;;;;;;;7.11;99.66;144006.92;1835018;77;22136;-65
2021/09/23 02:13:09;;;;;;;9.28;4.70;;;;;;;7.08;99.78;144000.67;1853474;77;22159;-57
2021/09/23 02:16:04;;;;;;;8.90;5.45;;;;;;;7.07;99.86;143998.19;1853459;77;22550;-60
2021/09/23 02:18:40;;;;;;;8.13;5.55;;;;;;;7.07;99.94;143998.19;1837787;77;27997;-64
2021/09/23 02:21:40;;;;;;;10.25;5.05;;;;;;;7.12;99.81;144009.41;1834147;77;22157;-61
2021/09/23 02:24:15;;;;;;;7.72;4.83;;;;;;;7.07;99.86;143998.19;1853567;77;22156;-57
2021/09/23 02:26:50;;;;;;;8.15;5.35;;;;;;;7.06;99.93;143994.42;1834989;77;22128;-60
2021/09/23 02:29:25;;;;;;;7.42;5.75;;;;;;;7.07;99.93;143998.19;1853563;77;22127;-61
2021/09/23 02:32:03;;;;;;;10.90;6.03;;;;;;;7.07;99.95;143998.19;1835036;77;22132;-63
2021/09/23 02:34:44;;;;;;;9.18;5.60;;;;;;;7.09;99.90;144003.16;1834146;77;22152;-61
2021/09/23 02:37:19;;;;;;;8.43;5.25;;;;;;;7.08;99.79;144000.67;1853644;77;22135;-63
2021/09/23 02:39:54;;;;;;;8.68;5.92;;;;;;;7.11;99.93;144006.92;1834994;77;22125;-63
2021/09/23 02:42:28;;;;;;;9.50;5.85;;;;;;;7.10;99.77;144005.69;1835126;77;22128;-59
2021/09/23 02:45:05;;;;;;;8.58;5.83;;;;;;;7.08;99.71;143999.44;1853516;77;22550;-59
2021/09/23 02:48:01;;;;;;;12.85;6.50;;;;;;;7.07;99.71;143998.19;1834816;77;22144;-61
2021/09/23 02:50:36;;;;;;;11.70;6.17;;;;;;;7.06;99.77;143995.66;1835004;77;22128;-58
2021/09/23 02:53:30;;;;;;;8.30;5.92;;;;;;;7.03;99.72;143988.17;1853562;77;22128;-63
2021/09/23 02:56:07;;;;;;;10.90;6.97;;;;;;;7.01;99.80;143983.16;1853678;77;22116;-60
2021/09/23 02:58:42;;;;;;;10.98;6.08;;;;;;;6.99;99.81;143978.16;1853591;77;22127;-63
2021/09/23 03:01:56;;;;;;;9.10;6.42;;;;;;;7.02;99.87;143985.69;1827285;77;22201;-65
2021/09/23 03:04:31;;;;;;;9.13;6.25;;;;;;;6.99;99.79;143978.16;1834987;77;22152;-59
2021/09/23 03:07:06;;;;;;;8.78;6.40;;;;;;;7.00;99.92;143980.67;1834993;77;22124;-61
2021/09/23 03:10:09;;;;;;;10.82;7.08;;;;;;;7.03;99.81;143988.17;1834090;77;22132;-65
2021/09/23 03:12:43;;;;;;;9.95;6.00;;;;;;;7.04;99.76;143990.66;1835024;77;20100;-57
2021/09/23 03:15:18;;;;;;;9.40;6.50;;;;;;;7.08;99.70;143999.44;1834988;77;22136;-57
2021/09/23 03:18:14;;;;;;;9.03;6.97;;;;;;;7.13;99.68;144013.19;1834908;77;22602;-63
2021/09/23 03:20:49;;;;;;;10.88;7.30;;;;;;;7.10;99.41;144005.69;1835113;77;22132;-58
2021/09/23 03:23:24;;;;;;;8.68;6.70;;;;;;;7.09;99.38;144003.16;1837924;77;28403;-61
2021/09/23 03:25:59;;;;;;;10.00;6.60;;;;;;;7.14;99.30;144015.66;1834925;77;22140;-57
2021/09/23 03:28:34;;;;;;;12.80;8.65;;;;;;;7.15;99.20;144018.19;1834992;77;22124;-59
2021/09/23 03:31:28;;;;;;;10.65;7.37;;;;;;;7.12;99.19;144009.41;1834965;77;22120;-65
2021/09/23 03:34:05;;;;;;;11.80;7.05;;;;;;;7.12;99.21;144010.70;1853545;77;22119;-65
2021/09/23 03:36:59;;;;;;;10.90;7.17;;;;;;;7.15;99.30;144018.19;1819394;77;27982;-62
2021/09/23 03:39:53;;;;;;;10.63;7.50;;;;;;;7.26;99.16;144043.20;1834973;77;22132;-57
2021/09/23 03:42:27;;;;;;;12.37;7.20;;;;;;;7.28;99.04;144049.47;1835032;77;22124;-63
2021/09/23 03:45:05;;;;;;;10.30;7.22;;;;;;;7.27;98.77;144046.94;1853694;77;22124;-61
2021/09/23 03:47:59;;;;;;;8.60;6.75;;;;;;;7.27;98.74;144046.94;1834906;77;22136;-64
2021/09/23 03:50:37;;;;;;;11.10;7.60;;;;;;;7.29;98.67;144050.70;1834791;77;22578;-64
2021/09/23 03:53:31;;;;;;;11.03;6.70;;;;;;;7.31;98.71;144056.95;1834932;77;22128;-63
2021/09/23 03:56:12;;;;;;;11.12;7.40;;;;;;;7.33;98.42;144060.73;1835067;77;22120;-63
2021/09/23 03:58:43;;;;;;;12.43;7.50;;;;;;;7.28;98.22;144048.22;1835214;77;22120;-58
2021/09/23 04:01:18;;;;;;;11.93;7.08;;;;;;;7.25;98.30;144040.69;1834990;77;22132;-61
2021/09/23 04:04:31;;;;;;;12.35;6.42;;;;;;;7.28;98.46;144048.22;1838309;77;22208;-61
2021/09/23 04:07:31;;;;;;;10.88;7.25;;;;;;;7.29;98.39;144051.94;1834042;77;22193;-59
2021/09/23 04:10:09;;;;;;;10.95;7.22;;;;;;;7.32;98.36;144058.20;1834940;77;22579;-60
2021/09/23 04:12:44;;;;;;;9.73;6.42;;;;;;;7.34;98.31;144063.22;1854082;77;22542;-63
2021/09/23 04:15:18;;;;;;;9.18;6.45;;;;;;;7.34;98.19;144063.22;1835502;77;22133;-64
2021/09/23 04:17:53;;;;;;;8.45;6.15;;;;;;;7.33;98.13;144060.73;1853725;77;22538;-60
2021/09/23 04:20:28;;;;;;;8.88;6.28;;;;;;;7.31;98.11;144056.95;1835374;77;22128;-57
2021/09/23 04:23:03;;;;;;;13.83;8.33;;;;;;;7.29;98.08;144051.94;1835082;77;22128;-61
2021/09/23 04:25:38;;;;;;;9.93;6.87;;;;;;;7.30;98.02;144053.19;1835098;77;22133;-62
2021/09/23 04:28:32;;;;;;;11.30;6.20;;;;;;;7.28;98.01;144048.22;1853676;77;22534;-57
2021/09/23 04:31:07;;;;;;;9.20;6.37;;;;;;;7.25;98.06;144040.69;1834976;77;22539;-62
2021/09/23 04:33:42;;;;;;;10.93;6.53;;;;;;;7.25;98.10;144040.69;1834831;77;22578;-63
2021/09/23 04:36:37;;;;;;;12.85;6.25;;;;;;;7.25;98.01;144040.69;1823688;77;22260;-62
2021/09/23 04:39:28;;;;;;;9.85;6.50;;;;;;;7.25;97.96;144041.97;1824613;77;22614;-59
2021/09/23 04:42:04;;;;;;;10.53;6.08;;;;;;;7.31;98.03;144055.72;1835047;77;22587;-63
2021/09/23 04:44:45;;;;;;;9.53;6.00;;;;;;;7.38;97.88;144073.23;1853424;77;22586;-61
2021/09/23 04:47:20;;;;;;;9.53;6.45;;;;;;;7.43;97.64;144085.75;1818803;77;28016;-63
2021/09/23 04:50:14;;;;;;;9.08;6.12;;;;;;;7.50;97.31;144101.98;1823064;77;22176;-62
2021/09/23 04:52:49;;;;;;;8.28;5.20;;;;;;;7.50;97.18;144103.22;1834701;77;22209;-58
2021/09/23 04:55:24;;;;;;;7.95;5.25;;;;;;;7.50;97.02;144103.22;1824136;77;22143;-66
2021/09/23 04:58:00;;;;;;;7.08;4.95;;;;;;;7.53;96.92;144109.47;1834973;77;22551;-58
2021/09/23 05:00:54;;;;;;;8.80;5.55;;;;;;;7.48;96.30;144098.25;1834886;77;22136;-63
2021/09/23 05:03:29;;;;;;;8.73;6.30;;;;;;;7.48;96.49;144098.25;1834953;77;22160;-62
2021/09/23 05:06:10;;;;;;;10.00;5.53;;;;;;;7.47;96.29;144095.72;1853472;77;22177;-63
2021/09/23 05:08:44;;;;;;;7.85;5.10;;;;;;;7.50;96.41;144103.22;1853457;77;22155;-58
2021/09/23 05:11:46;;;;;;;8.30;5.70;;;;;;;7.58;96.29;144121.98;1853390;77;22140;-62
2021/09/23 05:14:21;;;;;;;7.80;6.30;;;;;;;7.63;96.03;144134.50;1815257;77;22168;-63
2021/09/23 05:16:56;;;;;;;8.35;5.40;;;;;;;7.67;95.73;144144.53;1852001;76;22125;-64
2021/09/23 05:19:31;;;;;;;8.60;5.40;;;;;;;7.68;95.42;144145.77;1816930;77;22200;-56
2021/09/23 05:22:06;;;;;;;8.13;5.50;;;;;;;7.64;95.26;144137.03;1816414;77;22574;-66
2021/09/23 05:24:47;;;;;;;13.05;5.50;;;;;;;7.64;95.50;144135.78;1823965;77;22187;-59
2021/09/23 05:27:45;;;;;;;10.45;5.17;;;;;;;7.73;95.62;144158.28;1834069;77;22590;-60
2021/09/23 05:30:39;;;;;;;8.90;5.03;;;;;;;7.73;94.72;144158.28;1834909;77;22160;-59
2021/09/23 05:33:33;;;;;;;9.28;5.33;;;;;;;7.69;94.77;144149.55;1834950;77;22555;-59
2021/09/23 05:36:14;;;;;;;7.90;4.90;;;;;;;7.72;94.66;144155.80;1834064;77;22163;-61
2021/09/23 05:38:49;;;;;;;9.55;5.28;;;;;;;7.73;94.47;144158.28;1829020;77;22180;-58
2021/09/23 05:41:28;;;;;;;8.63;5.53;;;;;;;7.78;94.69;144170.80;1834884;77;22180;-60
2021/09/23 05:44:25;;;;;;;6.60;4.72;;;;;;;7.81;94.52;144178.30;1826794;77;22175;-64
2021/09/23 05:47:00;;;;;;;8.73;4.70;;;;;;;7.83;94.47;144183.31;1832513;77;22163;-63
2021/09/23 05:49:35;;;;;;;7.70;4.60;;;;;;;7.96;94.45;144215.89;1800766;79;22164;-61
2021/09/23 05:52:29;;;;;;;5.70;3.75;;;;;;;8.20;93.95;144273.45;1822843;77;22147;-63
2021/09/23 05:55:10;;;;;;;7.85;4.40;;;;;;;8.41;93.15;144324.81;1813598;77;22243;-61
2021/09/23 05:57:51;;;;;;;8.20;4.10;;;;;;;8.53;92.94;144353.63;1832931;77;22150;-59
2021/09/23 06:00:45;;;;;;;6.15;3.47;;;;;;;8.66;92.99;144387.42;1853398;77;22131;-58
2021/09/23 06:03:26;;;;;;;6.42;3.50;;;;;;;8.73;92.10;144403.72;1834122;77;22156;-59
2021/09/23 06:06:08;;;;;;;4.70;2.70;;;;;;;8.61;92.63;144373.66;1853296;77;22200;-65
2021/09/23 06:09:03;;;;;;;5.78;3.37;;;;;;;8.47;92.94;144339.81;1830813;77;22285;-60
2021/09/23 06:11:59;;;;;;;5.03;2.90;;;;;;;8.38;93.70;144318.50;1837781;77;28020;-58
2021/09/23 06:14:59;;;;;;;4.15;2.52;;;;;;;8.30;93.95;144297.25;1834100;77;22227;-57
2021/09/23 06:17:41;;;;;;;5.80;3.27;;;;;;;8.24;94.42;144283.44;1834886;77;22168;-60
2021/09/23 06:20:43;;;;;;;4.50;2.80;;;;;;;8.27;94.70;144290.98;1853538;77;22170;-60
2021/09/23 06:23:38;;;;;;;5.20;3.00;;;;;;;8.27;94.44;144290.98;1837303;77;27988;-63
2021/09/23 06:26:32;;;;;;;6.45;2.65;;;;;;;8.32;94.46;144303.50;1833953;77;22176;-64
2021/09/23 06:29:07;;;;;;;5.25;3.00;;;;;;;8.27;94.03;144290.98;1853482;77;22741;-59
2021/09/23 06:32:01;;;;;;;4.25;2.95;;;;;;;8.23;94.30;144282.19;1835006;77;22132;-60
2021/09/23 06:34:36;;;;;;;6.78;3.67;;;;;;;8.25;94.30;144287.20;1853523;77;20099;-59
2021/09/23 06:37:13;;;;;;;5.47;3.50;;;;;;;8.18;94.14;144268.44;1834873;77;22164;-62
2021/09/23 06:39:47;;;;;;;6.05;2.95;;;;;;;8.14;94.32;144259.69;1832939;77;22567;-58
2021/09/23 06:42:22;;;;;;;7.62;3.42;;;;;;;8.12;94.71;144253.44;1834980;77;22161;-59
2021/09/23 06:44:58;;;;;;;6.30;4.20;;;;;;;8.16;94.87;144263.42;1823993;77;22211;-61
2021/09/23 06:47:33;;;;;;;93.15;47.75;;;;;;;8.22;94.73;144279.70;1822409;77;22214;-64
2021/09/23 06:50:27;;;;;;;13.32;7.35;;;;;;;8.29;94.56;144294.72;1835118;77;22519;-62
2021/09/23 06:53:03;;;;;;;5.90;3.20;;;;;;;8.35;94.22;144311.00;1837980;77;28406;-63
2021/09/23 06:55:38;;;;;;;6.12;3.67;;;;;;;8.51;93.62;144349.84;1853625;77;22140;-59
2021/09/23 06:58:12;;;;;;;6.08;4.05;;;;;;;8.71;93.46;144397.45;1834968;77;22531;-59
2021/09/23 07:01:24;;;;;;;6.28;3.67;;;;;;;9.20;93.59;144518.94;1853554;77;22562;-60
2021/09/23 07:03:59;;;;;;;5.53;3.25;;;;;;;9.63;92.52;144624.19;1835087;77;22590;-59
2021/09/23 07:06:36;;;;;;;5.17;3.37;;;;;;;10.01;90.83;144716.97;1819130;77;28422;-58
2021/09/23 07:09:38;;;;;;;5.05;3.12;;;;;;;10.25;88.67;144775.86;1834215;77;22180;-61
2021/09/23 07:12:13;;;;;;;5.53;3.22;;;;;;;10.40;88.02;144812.28;1834906;77;22219;-61
2021/09/23 07:14:50;;;;;;;6.10;3.42;;;;;;;10.63;86.63;144870.02;1853408;77;22200;-58
2021/09/23 07:17:43;;;;;;;7.00;3.00;;;;;;;10.78;84.94;144905.11;1853311;77;22238;-59
2021/09/23 07:20:19;;;;;;;3.50;1.87;;;;;;;10.82;83.64;144915.16;1853527;77;22615;-59
2021/09/23 07:23:01;;;;;;;5.12;3.12;;;;;;;10.61;81.43;144863.75;1834144;77;22578;-58
2021/09/23 07:25:55;;;;;;;4.62;2.40;;;;;;;10.44;82.47;144822.34;1834904;77;22559;-61
2021/09/23 07:28:55;;;;;;;4.15;2.02;;;;;;;10.23;81.08;144770.89;1853424;77;22509;-66
2021/09/23 07:31:30;;;;;;;3.33;1.90;;;;;;;9.86;81.35;144679.36;1853520;77;22127;-60
2021/09/23 07:34:06;;;;;;;4.35;1.92;;;;;;;9.63;82.05;144624.19;1853475;77;22191;-59
2021/09/23 07:36:41;;;;;;;7.97;2.22;;;;;;;9.49;82.47;144589.09;1834813;77;22583;-60
2021/09/23 07:39:36;;;;;;;3.50;1.85;;;;;;;9.37;82.51;144559.06;1834846;77;22635;-63
2021/09/23 07:42:17;;;;;;;3.33;1.65;;;;;;;9.18;82.71;144512.67;1834091;77;22213;-59
2021/09/23 07:44:52;;;;;;;4.40;2.20;;;;;;;8.98;83.33;144465.09;1834878;77;22578;-63
2021/09/23 07:47:27;;;;;;;4.10;1.90;;;;;;;8.82;83.94;144426.23;1834716;77;22586;-59
2021/09/23 07:50:03;;;;;;;5.65;2.02;;;;;;;8.70;84.45;144396.17;1834895;77;22151;-58
2021/09/23 07:52:38;;;;;;;3.72;1.80;;;;;;;8.64;84.94;144381.16;1819387;77;28386;-56
2021/09/23 07:55:40;;;;;;;4.40;2.05;;;;;;;8.73;85.08;144402.42;1854070;77;22205;-57
2021/09/23 07:58:21;;;;;;;3.58;1.90;;;;;;;8.80;85.29;144421.25;1853526;77;22598;-61
2021/09/23 08:01:16;;;;;;;5.97;1.90;;;;;;;8.87;85.02;144438.75;1853714;77;22123;-66
2021/09/23 08:03:53;;;;;;;3.33;1.82;;;;;;;8.96;85.09;144458.83;1853725;77;22131;-64
2021/09/23 08:06:52;;;;;;;4.10;2.10;;;;;;;9.00;84.23;144468.83;1834264;77;22188;-65
2021/09/23 08:09:47;;;;;;;3.15;1.70;;;;;;;8.94;84.45;144453.81;1835093;77;22137;-61
2021/09/23 08:12:22;;;;;;;3.12;1.90;;;;;;;8.96;84.56;144458.83;1835204;77;22607;-56
2021/09/23 08:14:58;;;;;;;3.87;2.00;;;;;;;9.03;84.67;144477.63;1819458;77;28372;-57
2021/09/23 08:17:35;;;;;;;3.90;2.00;;;;;;;9.19;84.72;144516.45;1834886;77;22204;-63
2021/09/23 08:20:17;;;;;;;3.70;1.90;;;;;;;9.24;84.74;144527.73;1834169;77;22191;-65
2021/09/23 08:23:11;;;;;;;4.53;2.37;;;;;;;9.25;83.97;144531.47;1818246;77;22151;-61
2021/09/23 08:26:11;;;;;;;7.92;2.58;;;;;;;9.09;84.25;144491.39;1817254;77;22195;-58
2021/09/23 08:28:46;;;;;;;5.17;2.12;;;;;;;9.07;85.21;144486.38;1820028;77;22216;-65
2021/09/23 08:31:22;;;;;;;6.25;2.00;;;;;;;9.14;85.48;144503.92;1853662;77;22131;-60
2021/09/23 08:34:17;;;;;;;4.22;2.10;;;;;;;9.08;85.83;144490.16;1835071;77;20215;-57
2021/09/23 08:36:58;;;;;;;3.90;1.90;;;;;;;8.96;85.94;144460.08;1834138;77;22642;-63
2021/09/23 08:39:33;;;;;;;4.22;1.95;;;;;;;8.84;86.21;144430.00;1853308;77;22136;-62
2021/09/23 08:42:08;;;;;;;2.77;1.52;;;;;;;8.67;86.83;144389.91;1834929;77;22136;-65
2021/09/23 08:45:05;;;;;;;3.67;1.92;;;;;;;8.69;87.46;144393.69;1834987;77;22124;-61
2021/09/23 08:47:43;;;;;;;3.90;1.98;;;;;;;8.80;87.33;144419.97;1834167;77;22136;-58
2021/09/23 08:50:21;;;;;;;3.45;1.75;;;;;;;8.79;87.34;144417.48;1834025;77;22203;-62
2021/09/23 08:53:18;;;;;;;3.62;1.85;;;;;;;8.85;87.20;144433.78;1834943;77;22575;-65
2021/09/23 08:55:53;;;;;;;5.03;1.77;;;;;;;8.94;87.00;144455.06;1853511;77;22127;-62
2021/09/23 08:58:28;;;;;;;4.35;2.10;;;;;;;9.10;87.41;144493.88;1819277;77;27968;-60
2021/09/23 09:01:29;;;;;;;3.30;1.77;;;;;;;9.49;86.25;144589.09;1853545;77;22600;-66
2021/09/23 09:04:09;;;;;;;3.60;1.90;;;;;;;9.61;85.35;144619.17;1818566;77;27956;-63
2021/09/23 09:07:30;;;;;;;3.10;1.57;;;;;;;9.91;85.40;144691.89;1834090;77;22180;-59
2021/09/23 09:10:15;;;;;;;4.00;1.72;;;;;;;10.20;84.13;144763.33;1834304;77;22160;-56
2021/09/23 09:13:10;;;;;;;4.10;1.62;;;;;;;10.22;83.10;144769.59;1827023;77;22203;-61
2021/09/23 09:16:14;;;;;;;4.60;1.90;;;;;;;10.14;82.25;144749.55;1833686;77;22172;-67
2021/09/23 09:18:54;;;;;;;5.33;1.70;;;;;;;10.01;82.92;144716.97;1818781;77;22171;-66
2021/09/23 09:22:14;;;;;;;3.77;1.80;;;;;;;10.13;83.23;144745.81;1816099;77;22229;-65
2021/09/23 09:25:09;;;;;;;3.30;1.90;;;;;;;10.23;83.10;144770.89;1817650;77;22143;-61
2021/09/23 09:28:06;;;;;;;4.60;2.30;;;;;;;10.29;82.74;144784.72;1817084;77;22203;-60
2021/09/23 09:30:43;;;;;;;3.47;2.00;;;;;;;10.33;82.34;144796.02;1804335;77;28103;-63
2021/09/23 09:33:18;;;;;;;4.53;2.67;;;;;;;10.46;82.28;144826.06;1852820;77;22649;-65
2021/09/23 09:35:53;;;;;;;3.62;1.98;;;;;;;10.56;81.96;144852.44;1852712;77;22156;-63
2021/09/23 09:38:49;;;;;;;3.27;1.52;;;;;;;10.34;81.09;144797.25;1853303;77;22144;-63
2021/09/23 09:41:27;;;;;;;3.85;1.87;;;;;;;10.19;80.77;144760.84;1834848;77;22234;-61
2021/09/23 09:44:22;;;;;;;3.62;1.57;;;;;;;10.04;80.54;144724.47;1834911;77;22582;-64
2021/09/23 09:46:58;;;;;;;3.65;1.80;;;;;;;9.78;80.70;144661.80;1848136;77;22175;-64
2021/09/23 09:50:16;;;;;;;2.77;1.47;;;;;;;9.63;81.26;144624.19;1834005;77;22188;-64
2021/09/23 09:52:58;;;;;;;4.65;1.60;;;;;;;9.59;81.87;144614.16;1834888;77;22160;-59
2021/09/23 09:55:54;;;;;;;5.72;1.60;;;;;;;9.52;82.02;144596.64;1835074;77;22554;-58
2021/09/23 09:59:07;;;;;;;5.40;2.20;;;;;;;9.52;82.59;144596.64;1834926;77;22165;-65
2021/09/23 10:01:56;;;;;;;3.40;1.82;;;;;;;9.68;82.95;144636.72;1834889;77;22155;-62
2021/09/23 10:04:58;;;;;;;5.33;2.27;;;;;;;9.69;83.13;144639.27;1834040;77;22216;-59
2021/09/23 10:07:56;;;;;;;6.25;3.40;;;;;;;9.81;82.65;144668.06;1801710;77;28497;-63
2021/09/23 10:10:32;;;;;;;3.42;2.22;;;;;;;9.90;82.05;144689.41;1834825;77;22547;-60
2021/09/23 10:13:33;;;;;;;4.15;1.95;;;;;;;9.88;81.50;144685.63;1853467;77;22614;-63
2021/09/23 10:16:28;;;;;;;4.05;1.72;;;;;;;9.99;81.79;144711.94;1853438;77;22152;-62
2021/09/23 10:19:11;;;;;;;3.08;1.60;;;;;;;10.12;81.27;144743.28;1854014;77;22191;-63
2021/09/23 10:22:05;;;;;;;3.22;1.70;;;;;;;10.20;81.00;144763.33;1853485;77;22135;-62
2021/09/23 10:24:43;;;;;;;8.95;4.50;;;;;;;10.30;81.06;144788.45;1853466;77;22172;-57
2021/09/23 10:28:00;;;;;;;5.45;2.58;;;;;;;10.53;80.54;144844.94;1853385;77;22184;-56
2021/09/23 10:30:40;;;;;;;4.10;2.17;;;;;;;10.60;80.24;144862.45;1834813;77;22247;-60
2021/09/23 10:33:16;;;;;;;3.98;1.85;;;;;;;10.63;79.51;144868.72;1834977;77;22140;-63
2021/09/23 10:35:53;;;;;;;2.85;1.65;;;;;;;10.55;79.52;144849.91;1834778;77;22169;-66
2021/09/23 10:38:47;;;;;;;4.05;2.00;;;;;;;10.49;80.10;144833.63;1834825;77;22176;-59
2021/09/23 10:41:44;;;;;;;3.45;1.62;;;;;;;10.53;80.25;144844.94;1837657;77;28377;-66
2021/09/23 10:44:21;;;;;;;3.10;1.92;;;;;;;10.34;79.28;144798.50;1834925;77;22141;-55
2021/09/23 10:46:57;;;;;;;3.47;1.62;;;;;;;10.13;79.25;144747.06;1834944;77;22615;-65
2021/09/23 10:49:32;;;;;;;4.20;2.00;;;;;;;9.95;79.63;144701.94;1837777;77;38701;-64
2021/09/23 10:52:14;;;;;;;3.20;1.50;;;;;;;9.94;80.00;144700.64;1834162;77;22209;-62
2021/09/23 10:55:09;;;;;;;3.40;1.72;;;;;;;9.89;79.68;144688.11;1834876;77;22211;-58
2021/09/23 10:57:46;;;;;;;3.52;1.80;;;;;;;9.93;79.85;144698.16;1834890;77;22147;-59
2021/09/23 11:00:41;;;;;;;3.10;1.50;;;;;;;9.97;79.85;144706.91;1834732;77;22132;-58
2021/09/23 11:03:18;;;;;;;3.87;1.50;;;;;;;9.93;79.37;144696.91;1837776;77;27948;-62
2021/09/23 11:06:12;;;;;;;4.12;1.82;;;;;;;9.93;78.88;144696.91;1853508;77;22166;-59
2021/09/23 11:08:48;;;;;;;3.95;1.62;;;;;;;9.83;78.89;144671.84;1834801;77;20096;-59
2021/09/23 11:11:24;;;;;;;3.65;1.62;;;;;;;9.73;79.16;144649.27;1853473;77;22562;-60
2021/09/23 11:14:01;;;;;;;4.22;1.87;;;;;;;9.65;79.33;144627.97;1834671;77;22183;-58
2021/09/23 11:16:55;;;;;;;3.22;1.80;;;;;;;9.60;79.75;144616.69;1817757;77;22244;-61
2021/09/23 11:19:32;;;;;;;3.52;1.90;;;;;;;9.50;79.81;144591.63;1825302;77;22183;-63
2021/09/23 11:22:40;;;;;;;2.65;1.50;;;;;;;9.38;80.59;144562.78;1819305;77;28394;-63
2021/09/23 11:25:22;;;;;;;2.98;1.80;;;;;;;9.45;81.20;144579.09;1853524;77;22127;-57
2021/09/23 11:28:19;;;;;;;5.00;2.00;;;;;;;9.45;81.39;144579.09;1853473;77;22140;-65
2021/09/23 11:31:13;;;;;;;6.72;1.98;;;;;;;9.51;81.80;144594.11;1815153;77;27972;-60
2021/09/23 11:33:52;;;;;;;3.15;1.98;;;;;;;9.64;81.90;144626.73;1819600;77;22176;-59
2021/09/23 11:36:46;;;;;;;4.37;2.37;;;;;;;9.81;82.10;144666.81;1820716;77;22199;-61
2021/09/23 11:39:47;;;;;;;3.80;2.30;;;;;;;10.00;81.76;144714.47;1835325;77;22133;-62
2021/09/23 11:42:23;;;;;;;4.75;2.92;;;;;;;10.12;81.68;144744.53;1853964;77;22164;-60
2021/09/23 11:45:11;;;;;;;7.75;5.12;;;;;;;10.30;81.30;144788.45;1819515;77;28519;-61
2021/09/23 11:47:57;;;;;;;8.58;4.95;;;;;;;10.49;80.90;144834.87;1835117;77;22132;-64
2021/09/23 11:50:51;;;;;;;10.95;5.70;;;;;;;10.56;80.47;144852.44;1819458;77;28435;-62
2021/09/23 11:53:35;;;;;;;8.93;4.90;;;;;;;10.68;80.22;144881.27;1834897;77;22136;-62
2021/09/23 11:56:35;;;;;;;4.95;3.02;;;;;;;10.75;80.04;144897.59;1853525;77;22151;-63
2021/09/23 11:59:35;;;;;;;7.30;2.60;;;;;;;10.74;79.63;144895.09;1819259;77;22598;-62
2021/09/23 12:02:32;;;;;;;6.92;2.42;;;;;;;10.68;79.29;144880.02;1853325;77;22204;-60
2021/09/23 12:05:30;;;;;;;4.42;2.35;;;;;;;10.63;79.17;144870.02;1834835;77;22136;-59
2021/09/23 12:11:08;;;;;;;9.05;4.55;;;;;;;10.59;78.73;144859.97;1834862;77;22156;-55
2021/09/23 12:14:09;;;;;;;6.35;3.95;;;;;;;10.58;79.00;144857.47;1824487;77;22172;-62
2021/09/23 12:16:45;;;;;;;6.62;4.58;;;;;;;10.56;79.31;144851.20;1828355;77;22230;-60
2021/09/23 12:19:54;;;;;;;7.83;5.47;;;;;;;10.59;79.16;144858.72;1817401;77;22332;-57
2021/09/23 12:22:45;;;;;;;6.35;4.87;;;;;;;10.58;79.27;144857.47;1853320;77;22155;-56
2021/09/23 12:25:26;;;;;;;5.95;3.67;;;;;;;10.51;79.75;144839.91;1823339;77;22207;-58
2021/09/23 12:28:02;;;;;;;4.85;2.80;;;;;;;10.47;80.00;144829.84;1812927;77;22200;-60
2021/09/23 12:30:36;;;;;;;4.65;2.85;;;;;;;10.39;80.36;144809.80;1805336;77;38325;-57
2021/09/23 12:33:23;;;;;;;5.28;2.80;;;;;;;10.38;81.01;144807.25;1815127;77;22185;-62
2021/09/23 12:36:43;;;;;;;4.80;2.55;;;;;;;10.18;81.89;144758.34;1822079;77;22206;-60
2021/09/23 12:39:25;;;;;;;5.95;2.60;;;;;;;10.03;82.95;144720.73;1817234;77;22124;-60
2021/09/23 12:42:24;;;;;;;4.25;2.40;;;;;;;9.88;83.30;144684.38;1815439;77;22283;-61
2021/09/23 12:45:20;;;;;;;4.80;2.05;;;;;;;9.78;83.88;144661.80;1824332;78;22164;-62
2021/09/23 12:48:16;;;;;;;4.72;2.33;;;;;;;9.74;84.60;144651.80;1826110;77;22146;-60
2021/09/23 12:50:51;;;;;;;5.80;2.50;;;;;;;9.81;85.03;144666.81;1818572;77;22259;-59
2021/09/23 12:53:32;;;;;;;4.60;2.05;;;;;;;9.89;84.62;144686.86;1816898;77;22267;-60
2021/09/23 12:56:07;;;;;;;3.98;2.08;;;;;;;9.89;84.31;144686.86;1819804;77;22182;-58
2021/09/23 12:58:48;;;;;;;5.28;2.45;;;;;;;9.81;84.44;144666.81;1818363;77;22195;-62
2021/09/23 13:01:24;;;;;;;4.25;2.50;;;;;;;9.71;84.50;144644.23;1817477;77;22310;-59